Time;durP1;ratioP1;P1;durP2;ratioP2;P2;SDS_P1;SDS_P2;PMS_P1;PMS_P2;Temp;Humidity;BMP_temperature;BMP_pressure;BME280_temperature;BME280_humidity;BME280_pressure;Samples;Min_cycle;Max_cycle;Signal;HPM_P1;HPM_P2
2021/06/13 00:02:04;;;;;;;3.72;2.72;;;21.00;87.40;;;;;;5075525;28;20063;-71
2021/06/13 00:05:13;;;;;;;3.38;2.78;;;21.00;87.80;;;;;;5088543;28;20062;-71
2021/06/13 00:08:18;;;;;;;3.25;2.85;;;21.00;87.70;;;;;;5070617;28;20046;-71
2021/06/13 00:11:23;;;;;;;4.80;3.08;;;20.90;88.00;;;;;;5073242;28;20040;-71
2021/06/13 00:14:28;;;;;;;3.95;3.22;;;20.80;88.20;;;;;;5085716;28;20042;-72
2021/06/13 00:17:33;;;;;;;3.58;2.83;;;20.80;88.80;;;;;;5074584;28;20047;-72
2021/06/13 00:20:38;;;;;;;3.55;2.83;;;20.80;89.00;;;;;;5072789;28;20051;-72
2021/06/13 00:23:43;;;;;;;3.47;2.90;;;20.70;89.20;;;;;;5069612;28;20052;-72
2021/06/13 00:26:47;;;;;;;4.97;3.42;;;20.70;90.00;;;;;;5068624;28;20035;-72
2021/06/13 00:29:51;;;;;;;3.80;3.40;;;20.70;90.00;;;;;;5079653;28;20605;-72
2021/06/13 00:32:56;;;;;;;7.95;3.42;;;20.70;90.20;;;;;;5068013;28;20063;-71
2021/06/13 00:36:00;;;;;;;6.55;3.80;;;20.60;90.30;;;;;;5067640;28;20055;-72
2021/06/13 00:39:04;;;;;;;4.82;3.33;;;20.60;90.60;;;;;;5072514;28;20043;-71
2021/06/13 00:42:08;;;;;;;7.20;3.40;;;20.50;90.90;;;;;;5073541;28;20055;-72
2021/06/13 00:45:13;;;;;;;4.32;3.50;;;20.40;91.10;;;;;;5089796;28;20050;-72
2021/06/13 00:48:17;;;;;;;4.18;3.60;;;20.30;91.20;;;;;;5091749;28;20035;-71
2021/06/13 00:51:22;;;;;;;5.05;3.75;;;20.20;91.40;;;;;;5084671;28;20063;-71
2021/06/13 00:54:28;;;;;;;5.20;4.07;;;20.20;91.70;;;;;;5072831;28;20059;-71
2021/06/13 00:57:32;;;;;;;5.85;4.18;;;20.20;91.90;;;;;;5089440;28;20497;-70
2021/06/13 01:00:39;;;;;;;5.00;4.15;;;20.20;91.90;;;;;;5079325;28;20043;-71
2021/06/13 01:03:45;;;;;;;5.15;4.38;;;20.20;92.10;;;;;;5072669;28;20055;-71
2021/06/13 01:07:04;;;;;;;8.13;4.72;;;20.10;92.50;;;;;;5072311;28;20048;-71
2021/06/13 01:10:30;;;;;;;6.45;4.43;;;20.10;92.70;;;;;;5097648;28;20036;-72
2021/06/13 01:13:56;;;;;;;4.80;4.20;;;20.10;92.70;;;;;;5089107;28;20119;-71
2021/06/13 01:17:32;;;;;;;6.20;4.35;;;20.10;93.10;;;;;;5082536;28;20047;-71
2021/06/13 01:20:46;;;;;;;5.40;4.70;;;20.00;93.20;;;;;;5087765;28;20379;-71
2021/06/13 01:24:02;;;;;;;5.63;4.50;;;19.90;93.60;;;;;;5082408;28;20043;-71
2021/06/13 01:27:25;;;;;;;5.75;4.38;;;19.90;93.70;;;;;;5084371;28;20051;-71
2021/06/13 01:30:34;;;;;;;8.05;4.63;;;19.80;93.80;;;;;;5084347;28;20043;-71
2021/06/13 01:33:41;;;;;;;5.15;4.20;;;19.80;94.00;;;;;;5091232;28;20051;-71
2021/06/13 01:36:47;;;;;;;6.68;4.13;;;19.70;94.00;;;;;;5083347;28;20067;-71
2021/06/13 01:39:59;;;;;;;6.63;4.60;;;19.70;94.00;;;;;;5082652;28;20047;-71
2021/06/13 01:43:05;;;;;;;6.95;4.13;;;19.70;94.20;;;;;;5071027;28;20059;-71
2021/06/13 01:46:11;;;;;;;4.93;4.43;;;19.70;94.10;;;;;;5086382;28;20055;-71
2021/06/13 01:49:18;;;;;;;5.70;4.18;;;19.70;94.20;;;;;;5084866;28;20047;-71
2021/06/13 01:52:25;;;;;;;6.13;4.70;;;19.70;94.50;;;;;;5081840;28;20521;-71
2021/06/13 01:55:31;;;;;;;6.43;4.40;;;19.70;94.50;;;;;;5071251;28;20566;-71
2021/06/13 01:58:37;;;;;;;5.97;4.80;;;19.70;94.50;;;;;;5078309;28;20047;-71
2021/06/13 02:01:57;;;;;;;7.82;5.15;;;19.60;94.60;;;;;;5077583;28;20047;-71
2021/06/13 02:05:05;;;;;;;7.22;4.90;;;19.60;94.90;;;;;;5079802;28;20127;-71
2021/06/13 02:08:10;;;;;;;7.00;5.00;;;19.50;95.20;;;;;;5082064;28;20055;-71
2021/06/13 02:11:19;;;;;;;5.18;4.63;;;19.40;95.40;;;;;;5071889;28;20047;-71
2021/06/13 02:14:28;;;;;;;6.50;5.25;;;19.40;95.70;;;;;;5085830;28;20505;-71
2021/06/13 02:17:43;;;;;;;6.38;5.15;;;19.40;96.00;;;;;;5077627;28;20427;-70
2021/06/13 02:20:49;;;;;;;5.75;4.85;;;19.30;96.40;;;;;;5075830;28;20047;-71
2021/06/13 02:23:54;;;;;;;9.20;5.30;;;19.30;96.60;;;;;;5101105;28;20043;-71
2021/06/13 02:27:02;;;;;;;6.47;4.68;;;19.20;97.10;;;;;;5086014;28;20047;-71
2021/06/13 02:30:09;;;;;;;7.82;5.00;;;19.10;97.10;;;;;;5088534;28;20505;-71
2021/06/13 02:33:16;;;;;;;6.40;4.70;;;19.00;97.50;;;;;;5091291;28;20055;-71
2021/06/13 02:36:23;;;;;;;5.60;5.03;;;19.00;97.80;;;;;;5081734;28;20090;-71
2021/06/13 02:39:35;;;;;;;6.45;5.10;;;18.90;98.00;;;;;;5081658;28;20495;-71
2021/06/13 02:42:46;;;;;;;7.93;5.10;;;18.90;98.30;;;;;;5084481;28;20704;-71
2021/06/13 02:45:52;;;;;;;5.82;5.20;;;18.90;98.90;;;;;;5070204;28;20047;-71
2021/06/13 02:48:59;;;;;;;6.45;5.65;;;18.80;98.90;;;;;;5086623;28;20047;-71
2021/06/13 02:52:23;;;;;;;7.32;5.13;;;18.80;99.30;;;;;;5090248;28;20039;-71
2021/06/13 02:55:37;;;;;;;6.05;5.43;;;18.70;99.60;;;;;;5089950;28;20055;-71
2021/06/13 02:59:09;;;;;;;6.60;5.68;;;18.20;99.90;;;;;;5089764;28;20031;-71
2021/06/13 03:02:15;;;;;;;8.52;5.68;;;18.20;99.90;;;;;;5073234;28;20040;-71
2021/06/13 03:05:24;;;;;;;6.45;5.35;;;18.20;99.90;;;;;;5081521;28;20441;-71
2021/06/13 03:08:30;;;;;;;9.82;6.63;;;18.20;99.90;;;;;;5081208;28;20047;-71
2021/06/13 03:11:34;;;;;;;8.63;5.50;;;18.20;99.90;;;;;;5068747;28;20047;-71
2021/06/13 03:14:41;;;;;;;6.63;5.93;;;18.20;99.90;;;;;;5072841;28;20093;-71
2021/06/13 03:17:46;;;;;;;8.30;5.80;;;18.20;99.90;;;;;;5090304;28;20043;-70
2021/06/13 03:20:52;;;;;;;8.88;6.55;;;18.20;99.90;;;;;;5087845;28;20047;-71
2021/06/13 03:23:59;;;;;;;6.70;6.00;;;18.20;99.90;;;;;;5069678;28;20048;-71
2021/06/13 03:27:05;;;;;;;9.52;6.30;;;18.20;99.90;;;;;;5069814;28;20486;-71
2021/06/13 03:30:11;;;;;;;8.85;6.13;;;18.10;99.90;;;;;;5089244;28;20051;-71
2021/06/13 03:33:20;;;;;;;6.80;5.78;;;18.10;99.90;;;;;;5075931;28;20055;-71
2021/06/13 03:36:28;;;;;;;10.85;6.07;;;18.10;99.90;;;;;;5080752;28;20504;-71
2021/06/13 03:39:34;;;;;;;6.88;5.95;;;18.10;99.90;;;;;;5071148;28;20522;-71
2021/06/13 03:42:40;;;;;;;10.02;6.40;;;18.00;99.90;;;;;;5068703;28;20146;-71
2021/06/13 03:45:44;;;;;;;10.80;6.60;;;18.00;99.90;;;;;;5069885;28;20051;-71
2021/06/13 03:48:50;;;;;;;9.88;6.25;;;18.10;99.90;;;;;;5081472;28;20095;-71
2021/06/13 03:51:55;;;;;;;8.00;6.18;;;18.10;99.90;;;;;;5069164;28;20036;-71
2021/06/13 03:54:59;;;;;;;7.93;6.57;;;18.10;99.90;;;;;;5077594;28;20051;-71
2021/06/13 03:58:04;;;;;;;7.57;6.28;;;18.10;99.90;;;;;;5090138;28;20051;-71
2021/06/13 04:01:11;;;;;;;8.93;6.75;;;18.10;99.90;;;;;;5072612;28;20043;-71
2021/06/13 04:04:18;;;;;;;9.40;7.05;;;18.20;99.90;;;;;;5069355;28;20490;-71
2021/06/13 04:07:22;;;;;;;10.45;6.50;;;18.30;99.90;;;;;;5069697;28;20051;-71
2021/06/13 04:10:27;;;;;;;8.15;6.95;;;18.30;99.90;;;;;;5069854;28;20065;-71
2021/06/13 04:13:32;;;;;;;7.57;6.53;;;18.30;99.90;;;;;;5077788;28;20047;-71
2021/06/13 04:16:39;;;;;;;10.80;7.97;;;18.40;99.90;;;;;;5089764;28;20055;-71
2021/06/13 04:19:47;;;;;;;12.07;7.68;;;18.50;99.90;;;;;;5086359;28;20047;-71
2021/06/13 04:22:52;;;;;;;20.98;10.48;;;18.50;99.90;;;;;;5076768;28;20073;-71
2021/06/13 04:25:58;;;;;;;20.48;11.60;;;18.50;99.90;;;;;;5073856;28;20047;-71
2021/06/13 04:29:02;;;;;;;23.48;11.20;;;18.90;99.90;;;;;;5073410;28;20036;-71
2021/06/13 04:32:09;;;;;;;29.27;13.55;;;20.40;99.90;;;;;;5090750;28;20043;-71
2021/06/13 04:35:13;;;;;;;35.60;17.13;;;22.30;99.90;;;;;;5086149;28;20150;-71
2021/06/13 04:38:17;;;;;;;33.33;17.25;;;24.10;99.90;;;;;;5091223;28;20556;-71
2021/06/13 04:41:21;;;;;;;25.13;14.48;;;25.60;97.90;;;;;;5088809;28;20122;-72
2021/06/13 04:44:25;;;;;;;19.23;10.85;;;26.60;96.20;;;;;;5084103;28;20047;-71
2021/06/13 04:47:29;;;;;;;15.38;8.60;;;27.30;95.60;;;;;;5073418;28;20506;-71
2021/06/13 04:50:42;;;;;;;20.42;8.23;;;27.90;95.30;;;;;;5091007;28;20047;-71
2021/06/13 04:53:52;;;;;;;9.40;7.28;;;28.40;94.90;;;;;;5092820;28;20051;-71
2021/06/13 04:57:20;;;;;;;7.78;6.75;;;28.80;94.70;;;;;;5093619;28;20047;-72
2021/06/13 05:00:24;;;;;;;7.00;6.30;;;29.20;94.80;;;;;;5073166;28;20055;-71
2021/06/13 05:03:29;;;;;;;9.93;7.57;;;29.40;94.60;;;;;;5091509;28;20047;-71
2021/06/13 05:06:33;;;;;;;10.25;7.68;;;29.00;94.30;;;;;;5093116;28;20386;-71
2021/06/13 05:09:37;;;;;;;11.02;7.72;;;29.40;94.20;;;;;;5079086;28;20040;-72
2021/06/13 05:12:49;;;;;;;11.88;8.75;;;29.90;94.30;;;;;;5092965;28;20047;-72
2021/06/13 05:15:54;;;;;;;10.73;9.38;;;30.00;94.10;;;;;;5092797;28;20374;-71
2021/06/13 05:18:59;;;;;;;12.32;9.90;;;30.30;94.10;;;;;;5091993;28;20035;-71
2021/06/13 05:22:09;;;;;;;14.40;12.20;;;30.20;94.20;;;;;;5083621;28;20043;-71
2021/06/13 05:25:14;;;;;;;14.57;11.50;;;30.10;94.60;;;;;;5092178;28;20505;-71
2021/06/13 05:28:20;;;;;;;16.10;11.65;;;30.20;94.80;;;;;;5091619;28;20043;-72
2021/06/13 05:31:24;;;;;;;15.32;11.90;;;30.70;94.60;;;;;;5090595;28;20059;-71
2021/06/13 05:34:30;;;;;;;14.98;11.05;;;31.20;93.90;;;;;;5086666;28;20059;-72
2021/06/13 05:37:35;;;;;;;14.30;11.48;;;31.30;94.00;;;;;;5070957;28;20494;-72
2021/06/13 05:40:41;;;;;;;15.60;12.75;;;31.30;93.90;;;;;;5072335;28;20067;-71
2021/06/13 05:43:45;;;;;;;14.75;11.52;;;31.20;94.10;;;;;;5089552;28;20043;-72
2021/06/13 05:46:49;;;;;;;14.40;11.80;;;30.80;94.30;;;;;;5091762;28;20487;-71
2021/06/13 05:49:53;;;;;;;16.98;12.27;;;30.70;94.50;;;;;;5092171;28;20040;-71
2021/06/13 05:52:57;;;;;;;15.27;12.63;;;30.30;94.60;;;;;;5089642;28;20059;-69
2021/06/13 05:56:03;;;;;;;15.98;12.02;;;30.20;94.70;;;;;;5091884;28;20039;-71
2021/06/13 05:59:07;;;;;;;16.88;12.77;;;30.10;95.00;;;;;;5092012;28;20035;-71
2021/06/13 06:02:12;;;;;;;12.80;11.23;;;30.50;94.70;;;;;;5091803;28;20043;-71
2021/06/13 06:05:18;;;;;;;12.25;10.93;;;30.70;94.60;;;;;;5091356;28;20510;-68
2021/06/13 06:08:23;;;;;;;13.38;11.98;;;30.90;94.30;;;;;;5091262;28;20035;-70
2021/06/13 06:11:27;;;;;;;14.75;13.02;;;31.10;94.20;;;;;;5071486;28;20478;-70
2021/06/13 06:14:31;;;;;;;13.77;12.38;;;31.40;93.80;;;;;;5087511;28;20516;-70
2021/06/13 06:17:35;;;;;;;11.90;10.10;;;31.30;93.70;;;;;;5091798;28;20062;-70
2021/06/13 06:20:39;;;;;;;9.73;8.65;;;31.50;93.30;;;;;;5088829;28;20390;-71
2021/06/13 06:23:43;;;;;;;10.38;8.88;;;31.80;92.90;;;;;;5078686;28;20048;-69
2021/06/13 06:26:48;;;;;;;8.88;7.35;;;32.10;92.50;;;;;;5081136;28;20043;-70
2021/06/13 06:29:52;;;;;;;10.43;8.05;;;32.60;91.40;;;;;;5089860;28;20043;-71
2021/06/13 06:32:59;;;;;;;7.40;6.65;;;32.70;91.30;;;;;;5074311;28;20050;-72
2021/06/13 06:36:05;;;;;;;7.28;5.88;;;32.80;91.00;;;;;;5081965;28;20032;-72
2021/06/13 06:39:09;;;;;;;8.60;6.82;;;32.90;90.80;;;;;;5088691;28;20047;-72
2021/06/13 06:42:14;;;;;;;7.00;6.40;;;33.10;90.90;;;;;;5085205;28;20497;-72
2021/06/13 06:45:19;;;;;;;8.57;6.55;;;33.30;90.60;;;;;;5085525;28;20051;-72
2021/06/13 06:48:24;;;;;;;7.22;6.57;;;33.40;90.50;;;;;;5091416;28;20039;-72
2021/06/13 06:51:28;;;;;;;7.47;6.70;;;33.30;90.20;;;;;;5082266;28;20699;-72
2021/06/13 06:54:33;;;;;;;8.27;5.85;;;33.70;90.40;;;;;;5084379;28;20042;-71
2021/06/13 06:57:42;;;;;;;7.78;6.70;;;33.90;90.20;;;;;;5088877;28;20501;-71
2021/06/13 07:00:46;;;;;;;6.03;5.45;;;33.70;90.10;;;;;;5089226;28;20058;-72
2021/06/13 07:03:50;;;;;;;6.57;5.28;;;33.80;89.80;;;;;;5084755;28;20051;-72
2021/06/13 07:06:55;;;;;;;7.43;6.07;;;33.90;90.00;;;;;;5088935;28;20115;-70
2021/06/13 07:10:00;;;;;;;6.22;5.47;;;33.70;89.30;;;;;;5089407;28;20039;-72
2021/06/13 07:13:05;;;;;;;8.77;5.70;;;33.90;89.30;;;;;;5086350;28;20047;-71
2021/06/13 07:16:10;;;;;;;9.70;5.45;;;34.00;88.80;;;;;;5086970;28;20043;-71
2021/06/13 07:19:14;;;;;;;5.50;5.00;;;33.90;88.90;;;;;;5086561;28;20398;-71
2021/06/13 07:22:18;;;;;;;6.22;5.63;;;34.20;88.30;;;;;;5075384;28;20047;-72
2021/06/13 07:25:23;;;;;;;6.90;6.20;;;35.00;86.50;;;;;;5089009;28;20055;-70
2021/06/13 07:28:29;;;;;;;6.50;5.90;;;35.80;84.90;;;;;;5090512;28;20047;-72
2021/06/13 07:31:34;;;;;;;6.25;5.38;;;36.00;84.00;;;;;;5069708;28;20506;-72
2021/06/13 07:34:39;;;;;;;7.05;5.68;;;36.10;83.50;;;;;;5078820;28;20051;-71
2021/06/13 07:37:46;;;;;;;6.90;5.88;;;36.00;82.70;;;;;;5086717;28;20386;-71
2021/06/13 07:40:51;;;;;;;7.32;5.50;;;35.70;83.50;;;;;;5085273;28;20656;-72
2021/06/13 07:43:55;;;;;;;6.18;5.57;;;35.90;83.10;;;;;;5069587;28;20083;-72
2021/06/13 07:47:00;;;;;;;7.78;6.18;;;36.00;83.40;;;;;;5074603;28;20518;-72
2021/06/13 07:50:08;;;;;;;7.50;5.90;;;36.20;82.70;;;;;;5073326;28;20043;-72
2021/06/13 07:53:12;;;;;;;10.23;5.63;;;36.60;82.10;;;;;;5075374;28;20386;-72
2021/06/13 07:56:17;;;;;;;6.47;5.15;;;36.90;81.30;;;;;;5077383;28;20035;-71
2021/06/13 07:59:21;;;;;;;6.00;5.40;;;37.00;80.20;;;;;;5072236;28;20050;-71
2021/06/13 08:02:26;;;;;;;6.30;5.00;;;37.30;80.60;;;;;;5079037;28;20039;-71
2021/06/13 08:05:30;;;;;;;5.60;4.82;;;38.10;79.20;;;;;;5074392;28;20551;-72
2021/06/13 08:08:34;;;;;;;6.45;4.93;;;38.50;78.00;;;;;;5087026;28;20396;-71
2021/06/13 08:11:38;;;;;;;5.93;4.10;;;38.90;76.80;;;;;;5086793;28;20055;-72
2021/06/13 08:14:43;;;;;;;7.65;5.65;;;39.50;75.70;;;;;;5081903;28;20055;-73
2021/06/13 08:17:48;;;;;;;5.70;4.75;;;39.80;74.80;;;;;;5089297;28;20055;-71
2021/06/13 08:20:53;;;;;;;4.28;3.88;;;40.10;74.10;;;;;;5087055;28;20043;-72
2021/06/13 08:23:58;;;;;;;4.70;3.90;;;40.80;73.00;;;;;;5079608;28;20051;-71
2021/06/13 08:27:03;;;;;;;6.47;3.92;;;40.60;72.40;;;;;;5087583;28;20047;-72
2021/06/13 08:30:10;;;;;;;4.00;3.70;;;41.00;70.90;;;;;;5085177;28;20146;-71
2021/06/13 08:33:15;;;;;;;3.60;3.30;;;41.60;70.00;;;;;;5077116;28;20371;-71
2021/06/13 08:36:20;;;;;;;4.53;3.42;;;42.10;70.00;;;;;;5086096;28;20031;-70
2021/06/13 08:39:24;;;;;;;5.07;3.20;;;41.90;69.00;;;;;;5087659;28;20490;-71
2021/06/13 08:42:28;;;;;;;3.40;3.00;;;42.20;69.10;;;;;;5077022;28;20031;-70
2021/06/13 08:45:35;;;;;;;4.47;3.35;;;42.10;66.70;;;;;;5086235;28;20055;-71
2021/06/13 08:48:44;;;;;;;4.25;3.47;;;41.70;66.80;;;;;;5081105;28;20044;-70
2021/06/13 08:51:48;;;;;;;3.50;3.20;;;41.60;66.70;;;;;;5080391;28;20067;-70
2021/06/13 08:54:53;;;;;;;6.07;3.92;;;42.30;66.30;;;;;;5082768;28;20048;-71
2021/06/13 08:58:00;;;;;;;4.10;3.70;;;42.50;66.20;;;;;;5086883;28;20129;-70
2021/06/13 09:01:10;;;;;;;4.40;3.13;;;42.70;65.10;;;;;;5073573;28;20035;-71
2021/06/13 09:04:14;;;;;;;5.30;3.72;;;43.10;64.90;;;;;;5087725;28;20051;-71
2021/06/13 09:07:23;;;;;;;3.88;3.40;;;43.60;64.10;;;;;;5073771;28;20044;-71
2021/06/13 09:10:31;;;;;;;5.50;3.30;;;43.70;63.80;;;;;;5090308;28;20039;-71
2021/06/13 09:13:37;;;;;;;8.02;3.80;;;44.20;63.30;;;;;;5079782;28;20035;-72
2021/06/13 09:16:43;;;;;;;4.78;3.47;;;44.30;63.60;;;;;;5090257;28;21300;-71
2021/06/13 09:20:27;;;;;;;3.70;3.13;;;44.70;63.30;;;;;;5090256;28;20494;-71
2021/06/13 09:23:34;;;;;;;3.95;3.05;;;45.30;61.80;;;;;;5086468;28;20046;-71
2021/06/13 09:26:39;;;;;;;4.15;3.53;;;45.60;62.20;;;;;;5088293;28;20063;-71
2021/06/13 09:29:53;;;;;;;5.70;3.75;;;45.20;61.00;;;;;;5089667;28;20043;-72
2021/06/13 09:33:13;;;;;;;3.70;3.40;;;45.40;62.10;;;;;;5080723;28;20043;-72
2021/06/13 09:36:20;;;;;;;4.00;3.40;;;45.60;60.50;;;;;;5072495;28;20047;-72
2021/06/13 09:39:26;;;;;;;5.05;3.58;;;44.90;61.00;;;;;;5079073;28;20043;-71
2021/06/13 09:42:33;;;;;;;4.05;3.42;;;45.00;60.80;;;;;;5082379;28;20047;-71
2021/06/13 09:45:38;;;;;;;5.57;3.67;;;45.60;60.30;;;;;;5086180;28;20498;-71
2021/06/13 09:48:48;;;;;;;3.25;2.95;;;45.30;60.30;;;;;;5079681;28;20051;-71
2021/06/13 09:51:53;;;;;;;3.63;2.92;;;44.90;61.50;;;;;;5082760;28;20384;-71
2021/06/13 09:55:11;;;;;;;5.25;3.28;;;45.20;60.80;;;;;;5089147;28;20284;-71
2021/06/13 09:58:16;;;;;;;5.53;3.40;;;45.60;60.20;;;;;;5084260;28;20039;-71
2021/06/13 10:01:24;;;;;;;5.28;3.03;;;45.40;60.40;;;;;;5089948;28;20047;-72
2021/06/13 10:04:30;;;;;;;4.97;3.13;;;46.20;59.10;;;;;;5083973;28;20039;-71
2021/06/13 10:07:35;;;;;;;3.75;3.35;;;46.90;58.40;;;;;;5082784;28;20039;-71
2021/06/13 10:10:43;;;;;;;3.80;3.35;;;45.80;58.90;;;;;;5079460;28;20039;-71
2021/06/13 10:13:59;;;;;;;4.45;3.10;;;44.80;59.00;;;;;;5083633;28;20395;-71
2021/06/13 10:17:03;;;;;;;6.65;3.30;;;45.40;58.70;;;;;;5083545;28;20068;-71
2021/06/13 10:20:22;;;;;;;5.05;3.47;;;43.60;59.10;;;;;;5082313;28;20502;-70
2021/06/13 10:23:26;;;;;;;;;;;41.90;61.90;;;;;;5085710;28;20051;-68
2021/06/13 10:26:31;;;;;;;6.10;3.67;;;42.00;62.80;;;;;;5087424;28;20385;-70
2021/06/13 10:29:41;;;;;;;5.38;3.75;;;42.40;61.50;;;;;;5080825;28;20043;-70
2021/06/13 10:32:45;;;;;;;5.10;4.57;;;41.00;61.70;;;;;;5089290;28;20031;-70
2021/06/13 10:35:50;;;;;;;4.88;4.32;;;36.00;66.60;;;;;;5089516;28;20055;-70
2021/06/13 10:38:54;;;;;;;4.80;4.30;;;37.40;66.00;;;;;;5088794;28;20391;-70
2021/06/13 10:42:00;;;;;;;4.38;3.90;;;35.10;68.60;;;;;;5082155;28;20050;-68
2021/06/13 10:45:05;;;;;;;3.78;3.47;;;38.70;69.30;;;;;;5081048;28;20406;-70
2021/06/13 10:48:10;;;;;;;6.18;3.90;;;40.70;65.40;;;;;;5088416;28;20055;-69
2021/06/13 10:51:28;;;;;;;4.30;3.90;;;41.00;64.10;;;;;;5088395;28;20126;-71
2021/06/13 10:54:39;;;;;;;4.28;3.70;;;41.50;63.80;;;;;;5088829;28;20047;-71
2021/06/13 10:57:45;;;;;;;4.60;4.00;;;42.30;63.40;;;;;;5076753;28;20051;-71
2021/06/13 11:01:25;;;;;;;5.70;3.50;;;43.00;62.40;;;;;;5081678;28;20039;-71
2021/06/13 11:04:49;;;;;;;3.53;3.22;;;41.40;62.80;;;;;;5087602;28;20039;-71
2021/06/13 11:07:56;;;;;;;4.07;3.13;;;42.20;63.40;;;;;;5086350;28;20034;-72
2021/06/13 11:11:21;;;;;;;3.45;3.13;;;43.00;61.90;;;;;;5085145;28;20040;-71
2021/06/13 11:14:27;;;;;;;3.75;3.25;;;43.50;61.80;;;;;;5077295;28;20044;-71
2021/06/13 11:17:51;;;;;;;3.13;2.83;;;43.70;60.40;;;;;;5089413;28;20050;-71
2021/06/13 11:21:16;;;;;;;3.53;3.03;;;43.40;60.30;;;;;;5087601;28;20047;-72
2021/06/13 11:24:50;;;;;;;5.30;3.20;;;43.40;59.90;;;;;;5082919;28;20407;-70
2021/06/13 11:28:13;;;;;;;3.67;3.10;;;42.20;60.30;;;;;;5079325;28;20349;-70
2021/06/13 11:31:21;;;;;;;3.45;2.97;;;41.40;62.10;;;;;;5086886;28;20035;-70
2021/06/13 11:34:25;;;;;;;4.45;3.33;;;41.20;63.80;;;;;;5087239;28;20047;-71
2021/06/13 11:37:30;;;;;;;5.93;3.90;;;39.50;62.20;;;;;;5083885;28;20047;-70
2021/06/13 11:40:35;;;;;;;5.78;4.13;;;37.70;64.80;;;;;;5085864;28;20047;-70
2021/06/13 11:43:45;;;;;;;4.20;3.70;;;38.20;64.80;;;;;;5088944;28;20035;-70
2021/06/13 11:46:53;;;;;;;10.05;4.18;;;39.10;65.80;;;;;;5084800;28;20383;-69
2021/06/13 11:49:59;;;;;;;7.28;4.28;;;39.00;64.60;;;;;;5077008;28;20035;-67
2021/06/13 11:53:06;;;;;;;5.93;4.40;;;38.70;65.40;;;;;;5068280;28;20047;-70
2021/06/13 11:56:14;;;;;;;4.43;4.03;;;37.90;65.10;;;;;;5072762;28;20051;-69
2021/06/13 11:59:23;;;;;;;5.80;4.47;;;37.90;68.00;;;;;;5067706;28;20043;-70
2021/06/13 12:02:29;;;;;;;6.93;4.65;;;37.50;67.20;;;;;;5065293;28;20048;-69
2021/06/13 12:05:34;;;;;;;5.20;4.70;;;37.60;69.00;;;;;;5068543;28;20043;-70
2021/06/13 12:08:40;;;;;;;6.15;4.55;;;37.40;68.30;;;;;;5072193;28;20052;-71
2021/06/13 12:11:50;;;;;;;7.32;4.00;;;37.50;66.90;;;;;;5067661;28;20047;-71
2021/06/13 12:14:59;;;;;;;5.18;4.40;;;37.20;67.70;;;;;;5066032;28;20052;-71
2021/06/13 12:18:13;;;;;;;6.18;4.93;;;37.50;68.20;;;;;;5065580;28;20046;-72
2021/06/13 12:21:29;;;;;;;5.65;4.35;;;37.50;67.50;;;;;;5068194;28;20044;-71
2021/06/13 12:24:50;;;;;;;7.13;4.97;;;37.60;69.60;;;;;;5065631;28;20497;-71
2021/06/13 12:27:55;;;;;;;7.32;4.60;;;37.60;68.90;;;;;;5070014;28;20043;-71
2021/06/13 12:31:00;;;;;;;7.13;4.88;;;37.90;66.30;;;;;;5073357;28;20047;-70
2021/06/13 12:34:04;;;;;;;6.65;4.40;;;38.30;67.60;;;;;;5068073;28;20055;-72
2021/06/13 12:37:17;;;;;;;4.50;4.10;;;38.20;68.30;;;;;;5067252;28;20065;-72
2021/06/13 12:40:22;;;;;;;14.77;4.45;;;38.10;67.40;;;;;;5068666;28;20048;-71
2021/06/13 12:43:43;;;;;;;6.00;4.90;;;37.60;68.50;;;;;;5081474;28;20070;-71
2021/06/13 12:46:49;;;;;;;6.13;4.88;;;37.50;67.40;;;;;;5090969;28;20395;-71
2021/06/13 12:49:55;;;;;;;5.75;5.05;;;37.10;69.40;;;;;;5081197;28;20039;-70
2021/06/13 12:53:03;;;;;;;7.25;5.10;;;34.70;68.50;;;;;;5088020;28;20502;-70
2021/06/13 12:56:08;;;;;;;5.32;4.82;;;33.50;73.30;;;;;;5086724;28;20043;-71
2021/06/13 12:59:13;;;;;;;6.68;5.28;;;34.50;71.50;;;;;;5091128;28;20038;-71
2021/06/13 13:02:18;;;;;;;6.50;5.15;;;34.00;73.80;;;;;;5087049;28;20054;-69
2021/06/13 13:05:23;;;;;;;5.90;5.30;;;33.70;73.50;;;;;;5087485;28;20039;-71
2021/06/13 13:08:27;;;;;;;5.88;5.20;;;33.70;74.70;;;;;;5072575;28;20510;-71
2021/06/13 13:11:33;;;;;;;5.80;5.30;;;34.20;71.80;;;;;;5074736;28;21054;-71
2021/06/13 13:14:38;;;;;;;8.15;5.28;;;33.50;74.60;;;;;;5077410;28;20055;-71
2021/06/13 13:17:44;;;;;;;7.45;4.85;;;34.50;74.40;;;;;;5088752;28;20039;-71
2021/06/13 13:20:51;;;;;;;7.05;5.55;;;35.20;73.30;;;;;;5076029;28;20046;-71
2021/06/13 13:23:56;;;;;;;9.82;5.00;;;35.70;73.00;;;;;;5086129;28;20411;-70
2021/06/13 13:27:06;;;;;;;9.35;4.90;;;35.70;72.30;;;;;;5089081;28;20047;-71
2021/06/13 13:30:35;;;;;;;5.60;4.90;;;35.30;73.50;;;;;;5088314;28;20043;-72
2021/06/13 13:33:42;;;;;;;8.52;5.22;;;35.70;73.40;;;;;;5084979;28;20043;-72
2021/06/13 13:36:48;;;;;;;5.63;5.00;;;35.20;72.60;;;;;;5078262;28;20031;-72
2021/06/13 13:40:09;;;;;;;7.88;5.40;;;35.30;75.30;;;;;;5077966;28;20498;-71
2021/06/13 13:43:14;;;;;;;6.18;5.50;;;35.40;73.60;;;;;;5072485;28;20071;-72
2021/06/13 13:46:36;;;;;;;7.97;5.30;;;35.40;72.60;;;;;;5075289;28;20039;-71
2021/06/13 13:49:40;;;;;;;5.80;5.20;;;35.20;74.40;;;;;;5072325;28;20071;-72
2021/06/13 13:52:46;;;;;;;5.55;5.05;;;35.10;74.80;;;;;;5088021;28;20588;-70
2021/06/13 13:56:01;;;;;;;8.43;4.78;;;35.10;75.60;;;;;;5084817;28;20533;-71
2021/06/13 13:59:05;;;;;;;7.28;5.30;;;34.90;74.50;;;;;;5087701;28;20398;-71
2021/06/13 14:02:12;;;;;;;6.22;5.63;;;34.60;74.40;;;;;;5085904;28;20489;-71
2021/06/13 14:05:16;;;;;;;6.28;5.68;;;32.80;77.00;;;;;;5076831;28;20035;-70
2021/06/13 14:08:21;;;;;;;5.50;5.00;;;32.40;77.70;;;;;;5081096;28;20502;-69
2021/06/13 14:11:26;;;;;;;7.45;5.55;;;32.30;79.90;;;;;;5077998;28;20394;-71
2021/06/13 14:14:32;;;;;;;6.90;6.18;;;32.20;79.40;;;;;;5078513;28;20506;-70
2021/06/13 14:17:35;;;;;;;5.80;5.30;;;32.30;77.30;;;;;;5085116;28;20502;-70
2021/06/13 14:20:40;;;;;;;4.97;4.55;;;32.90;77.90;;;;;;5089599;28;20043;-71
2021/06/13 14:23:45;;;;;;;12.23;5.55;;;33.30;76.80;;;;;;5083431;28;20386;-71
2021/06/13 14:26:50;;;;;;;5.60;5.10;;;33.80;75.80;;;;;;5085227;28;20501;-71
2021/06/13 14:29:54;;;;;;;5.40;4.90;;;34.00;77.00;;;;;;5087906;28;20039;-71
2021/06/13 14:33:00;;;;;;;6.65;5.05;;;34.10;77.80;;;;;;5089899;28;20036;-71
2021/06/13 14:36:09;;;;;;;5.07;4.57;;;33.40;75.90;;;;;;5087102;28;20043;-70
2021/06/13 14:39:13;;;;;;;5.20;4.70;;;32.70;79.60;;;;;;5074482;28;20395;-71
2021/06/13 14:42:17;;;;;;;9.07;4.95;;;33.00;78.60;;;;;;5089384;28;20754;-71
2021/06/13 14:45:22;;;;;;;6.40;4.60;;;33.30;80.10;;;;;;5086026;28;20035;-70
2021/06/13 14:48:27;;;;;;;5.68;5.15;;;33.50;77.20;;;;;;5087218;28;20110;-71
2021/06/13 14:51:31;;;;;;;5.47;4.95;;;33.70;77.30;;;;;;5089217;28;20066;-71
2021/06/13 14:54:35;;;;;;;7.32;5.13;;;33.80;77.40;;;;;;5085238;28;20035;-70
2021/06/13 14:57:41;;;;;;;7.85;4.97;;;33.60;78.20;;;;;;5077417;28;20059;-71
2021/06/13 15:00:50;;;;;;;6.53;4.88;;;33.40;78.80;;;;;;5089253;28;20035;-71
2021/06/13 15:03:58;;;;;;;4.93;4.43;;;33.30;77.10;;;;;;5087806;28;20043;-71
2021/06/13 15:07:03;;;;;;;5.85;5.22;;;33.30;77.30;;;;;;5086031;28;20043;-71
2021/06/13 15:10:09;;;;;;;6.05;4.88;;;33.30;78.30;;;;;;5083950;28;20368;-71
2021/06/13 15:13:13;;;;;;;7.57;4.72;;;33.10;77.80;;;;;;5081064;28;20494;-71
2021/06/13 15:16:17;;;;;;;6.15;5.55;;;32.90;80.30;;;;;;5070446;28;20051;-71
2021/06/13 15:19:21;;;;;;;5.28;4.78;;;32.80;79.10;;;;;;5073885;28;20047;-71
2021/06/13 15:22:27;;;;;;;14.85;5.68;;;32.60;79.50;;;;;;5074834;28;20039;-70
2021/06/13 15:25:31;;;;;;;6.60;5.05;;;32.30;80.00;;;;;;5072071;28;20043;-71
2021/06/13 15:28:36;;;;;;;8.57;4.63;;;32.10;79.70;;;;;;5070716;28;20047;-71
2021/06/13 15:31:44;;;;;;;5.97;5.00;;;32.30;78.30;;;;;;5074499;28;20040;-71
2021/06/13 15:34:51;;;;;;;8.68;5.03;;;32.40;79.40;;;;;;5082719;28;20502;-71
2021/06/13 15:37:55;;;;;;;5.93;5.43;;;32.40;80.30;;;;;;5084491;28;20046;-70
2021/06/13 15:40:59;;;;;;;6.22;4.68;;;32.40;81.20;;;;;;5085921;28;20679;-69
2021/06/13 15:44:04;;;;;;;6.00;5.07;;;32.00;81.40;;;;;;5083539;28;20043;-70
2021/06/13 15:47:10;;;;;;;6.60;5.20;;;32.00;82.00;;;;;;5080896;28;20609;-70
2021/06/13 15:50:15;;;;;;;6.13;5.13;;;32.00;81.50;;;;;;5086572;28;20398;-70
2021/06/13 15:53:18;;;;;;;5.90;5.30;;;31.90;81.30;;;;;;5087575;28;20375;-70
2021/06/13 15:56:26;;;;;;;5.85;5.25;;;31.80;81.20;;;;;;5085106;28;20505;-69
2021/06/13 15:59:46;;;;;;;5.85;4.82;;;31.60;81.20;;;;;;5087552;28;20047;-70
2021/06/13 16:02:50;;;;;;;6.65;5.35;;;31.50;81.20;;;;;;5073908;28;20040;-70
2021/06/13 16:05:57;;;;;;;5.45;4.95;;;31.50;81.60;;;;;;5074646;28;20063;-68
2021/06/13 16:09:04;;;;;;;6.65;5.70;;;31.50;82.40;;;;;;5083594;28;20031;-71
2021/06/13 16:12:10;;;;;;;11.88;6.22;;;31.50;82.40;;;;;;5087408;28;20502;-70
2021/06/13 16:15:19;;;;;;;12.40;5.63;;;31.40;83.00;;;;;;5079699;28;20047;-70